sensor_id;sensor_type;location;lat;lon;timestamp;temperature;humidity
14359;DHT22;7263;49.418;11.064;2024-01-11T00:00:17;-6.60;99.90
14359;DHT22;7263;49.418;11.064;2024-01-11T00:02:47;-6.70;99.90
14359;DHT22;7263;49.418;11.064;2024-01-11T00:05:16;-6.70;99.90
14359;DHT22;7263;49.418;11.064;2024-01-11T00:07:45;-6.70;99.90
14359;DHT22;7263;49.418;11.064;2024-01-11T00:10:21;-6.80;99.90
14359;DHT22;7263;49.418;11.064;2024-01-11T00:12:50;-6.90;99.90
14359;DHT22;7263;49.418;11.064;2024-01-11T00:15:23;-6.90;99.90
14359;DHT22;7263;49.418;11.064;2024-01-11T00:17:52;-6.90;99.90
14359;DHT22;7263;49.418;11.064;2024-01-11T00:20:21;-7.00;99.90
14359;DHT22;7263;49.418;11.064;2024-01-11T00:22:48;-7.00;99.90
14359;DHT22;7263;49.418;11.064;2024-01-11T00:25:26;-4.10;99.90
14359;DHT22;7263;49.418;11.064;2024-01-11T00:28:11;-7.10;99.90
14359;DHT22;7263;49.418;11.064;2024-01-11T00:30:38;-7.10;99.90
14359;DHT22;7263;49.418;11.064;2024-01-11T00:33:11;-7.20;99.90
14359;DHT22;7263;49.418;11.064;2024-01-11T00:35:38;-7.20;99.90
14359;DHT22;7263;49.418;11.064;2024-01-11T00:38:04;-7.30;99.90
14359;DHT22;7263;49.418;11.064;2024-01-11T00:40:35;-7.30;99.90
14359;DHT22;7263;49.418;11.064;2024-01-11T00:43:07;-7.30;99.90
14359;DHT22;7263;49.418;11.064;2024-01-11T00:45:36;-7.40;99.90
14359;DHT22;7263;49.418;11.064;2024-01-11T00:48:11;-7.40;99.90
14359;DHT22;7263;49.418;11.064;2024-01-11T00:50:38;-7.40;99.90
14359;DHT22;7263;49.418;11.064;2024-01-11T00:53:07;-7.40;99.90
14359;DHT22;7263;49.418;11.064;2024-01-11T00:55:52;-6.30;99.90
14359;DHT22;7263;49.418;11.064;2024-01-11T00:58:19;-7.40;99.90
14359;DHT22;7263;49.418;11.064;2024-01-11T01:00:46;-7.50;99.90
14359;DHT22;7263;49.418;11.064;2024-01-11T01:03:16;-7.50;99.90
14359;DHT22;7263;49.418;11.064;2024-01-11T01:05:45;-7.50;99.90
14359;DHT22;7263;49.418;11.064;2024-01-11T01:08:20;-7.60;99.90
14359;DHT22;7263;49.418;11.064;2024-01-11T01:10:47;-7.60;99.90
14359;DHT22;7263;49.418;11.064;2024-01-11T01:13:15;-7.60;99.90
14359;DHT22;7263;49.418;11.064;2024-01-11T01:15:47;-7.70;99.90
14359;DHT22;7263;49.418;11.064;2024-01-11T01:18:17;-7.70;99.90
14359;DHT22;7263;49.418;11.064;2024-01-11T01:20:43;-7.70;99.90
14359;DHT22;7263;49.418;11.064;2024-01-11T01:23:10;-7.80;99.90
14359;DHT22;7263;49.418;11.064;2024-01-11T01:25:40;-7.80;99.90
14359;DHT22;7263;49.418;11.064;2024-01-11T01:28:15;-7.80;99.90
14359;DHT22;7263;49.418;11.064;2024-01-11T01:30:42;-7.80;99.90
14359;DHT22;7263;49.418;11.064;2024-01-11T01:33:14;-7.90;99.90
14359;DHT22;7263;49.418;11.064;2024-01-11T01:35:43;-7.90;99.90
14359;DHT22;7263;49.418;11.064;2024-01-11T01:38:15;-7.90;99.90
14359;DHT22;7263;49.418;11.064;2024-01-11T01:40:50;-7.90;99.90
14359;DHT22;7263;49.418;11.064;2024-01-11T01:43:18;-8.00;99.90
14359;DHT22;7263;49.418;11.064;2024-01-11T01:45:48;-8.00;99.90
14359;DHT22;7263;49.418;11.064;2024-01-11T01:48:14;-8.00;99.90
14359;DHT22;7263;49.418;11.064;2024-01-11T01:50:46;-8.00;99.90
14359;DHT22;7263;49.418;11.064;2024-01-11T01:53:24;-8.00;99.90
14359;DHT22;7263;49.418;11.064;2024-01-11T01:55:56;-8.00;99.90
14359;DHT22;7263;49.418;11.064;2024-01-11T01:58:28;-8.00;99.90
14359;DHT22;7263;49.418;11.064;2024-01-11T02:01:04;-8.10;99.90
14359;DHT22;7263;49.418;11.064;2024-01-11T02:03:35;-8.10;99.90
14359;DHT22;7263;49.418;11.064;2024-01-11T02:06:05;-8.10;99.90
14359;DHT22;7263;49.418;11.064;2024-01-11T02:08:37;-8.20;99.90
14359;DHT22;7263;49.418;11.064;2024-01-11T02:11:12;-8.20;99.90
14359;DHT22;7263;49.418;11.064;2024-01-11T02:13:41;-8.20;99.90
14359;DHT22;7263;49.418;11.064;2024-01-11T02:16:17;-8.20;99.90
14359;DHT22;7263;49.418;11.064;2024-01-11T02:18:46;-8.20;99.90
14359;DHT22;7263;49.418;11.064;2024-01-11T02:21:14;-8.20;99.90
14359;DHT22;7263;49.418;11.064;2024-01-11T02:24:04;-8.20;99.90
14359;DHT22;7263;49.418;11.064;2024-01-11T02:26:32;-8.30;99.90
14359;DHT22;7263;49.418;11.064;2024-01-11T02:29:01;-8.30;99.90
14359;DHT22;7263;49.418;11.064;2024-01-11T02:31:35;-8.30;99.90
14359;DHT22;7263;49.418;11.064;2024-01-11T02:34:02;-8.30;99.90
14359;DHT22;7263;49.418;11.064;2024-01-11T02:36:31;-8.40;99.90
14359;DHT22;7263;49.418;11.064;2024-01-11T02:39:07;-8.40;99.90
14359;DHT22;7263;49.418;11.064;2024-01-11T02:41:50;-8.40;99.90
14359;DHT22;7263;49.418;11.064;2024-01-11T02:44:17;-8.50;99.90
14359;DHT22;7263;49.418;11.064;2024-01-11T02:46:53;-8.50;99.90
14359;DHT22;7263;49.418;11.064;2024-01-11T02:49:27;-8.50;99.90
14359;DHT22;7263;49.418;11.064;2024-01-11T02:51:53;-8.50;99.90
14359;DHT22;7263;49.418;11.064;2024-01-11T02:54:22;-8.50;99.90
14359;DHT22;7263;49.418;11.064;2024-01-11T02:56:52;-8.50;99.90
14359;DHT22;7263;49.418;11.064;2024-01-11T02:59:21;-8.50;99.90
14359;DHT22;7263;49.418;11.064;2024-01-11T03:01:53;-8.50;99.90
14359;DHT22;7263;49.418;11.064;2024-01-11T03:04:19;-8.50;99.90
14359;DHT22;7263;49.418;11.064;2024-01-11T03:06:46;-8.60;99.90
14359;DHT22;7263;49.418;11.064;2024-01-11T03:09:12;-8.60;99.90
14359;DHT22;7263;49.418;11.064;2024-01-11T03:11:40;-8.60;99.90
14359;DHT22;7263;49.418;11.064;2024-01-11T03:14:13;-7.80;99.90
14359;DHT22;7263;49.418;11.064;2024-01-11T03:16:50;-8.60;99.90
14359;DHT22;7263;49.418;11.064;2024-01-11T03:19:17;-8.60;99.90
14359;DHT22;7263;49.418;11.064;2024-01-11T03:21:44;-8.60;99.90
14359;DHT22;7263;49.418;11.064;2024-01-11T03:24:14;-8.70;99.90
14359;DHT22;7263;49.418;11.064;2024-01-11T03:26:49;-8.70;99.90
14359;DHT22;7263;49.418;11.064;2024-01-11T03:29:25;-8.70;99.90
14359;DHT22;7263;49.418;11.064;2024-01-11T03:31:55;-8.80;99.90
14359;DHT22;7263;49.418;11.064;2024-01-11T03:34:39;-8.70;99.90
14359;DHT22;7263;49.418;11.064;2024-01-11T03:37:13;-8.80;99.90
14359;DHT22;7263;49.418;11.064;2024-01-11T03:39:40;-8.80;99.90
14359;DHT22;7263;49.418;11.064;2024-01-11T03:42:08;-8.80;99.90
14359;DHT22;7263;49.418;11.064;2024-01-11T03:44:36;-8.90;99.90
14359;DHT22;7263;49.418;11.064;2024-01-11T03:47:03;-8.90;99.90
14359;DHT22;7263;49.418;11.064;2024-01-11T03:49:36;-8.90;99.90
14359;DHT22;7263;49.418;11.064;2024-01-11T03:52:03;-8.90;99.90
14359;DHT22;7263;49.418;11.064;2024-01-11T03:54:42;-8.90;99.90
14359;DHT22;7263;49.418;11.064;2024-01-11T03:57:16;-8.90;99.90
14359;DHT22;7263;49.418;11.064;2024-01-11T03:59:52;-8.90;99.90
14359;DHT22;7263;49.418;11.064;2024-01-11T04:02:24;-8.90;99.90
14359;DHT22;7263;49.418;11.064;2024-01-11T04:04:51;-8.90;99.90
14359;DHT22;7263;49.418;11.064;2024-01-11T04:07:19;-8.80;99.90
14359;DHT22;7263;49.418;11.064;2024-01-11T04:09:46;-8.80;99.90
14359;DHT22;7263;49.418;11.064;2024-01-11T04:12:15;-8.80;99.90
14359;DHT22;7263;49.418;11.064;2024-01-11T04:14:48;-8.90;99.90
14359;DHT22;7263;49.418;11.064;2024-01-11T04:17:15;-8.90;99.90
14359;DHT22;7263;49.418;11.064;2024-01-11T04:19:45;-8.90;99.90
14359;DHT22;7263;49.418;11.064;2024-01-11T04:22:12;-8.90;99.90
14359;DHT22;7263;49.418;11.064;2024-01-11T04:24:38;-8.90;99.90
14359;DHT22;7263;49.418;11.064;2024-01-11T04:27:09;-8.90;99.90
14359;DHT22;7263;49.418;11.064;2024-01-11T04:29:36;-8.90;99.90
14359;DHT22;7263;49.418;11.064;2024-01-11T04:32:07;-8.90;99.90
14359;DHT22;7263;49.418;11.064;2024-01-11T04:34:42;-8.90;99.90
14359;DHT22;7263;49.418;11.064;2024-01-11T04:37:14;-9.00;99.90
14359;DHT22;7263;49.418;11.064;2024-01-11T04:39:43;-9.00;99.90
14359;DHT22;7263;49.418;11.064;2024-01-11T04:42:13;-9.00;99.90
14359;DHT22;7263;49.418;11.064;2024-01-11T04:44:42;-8.90;99.90
14359;DHT22;7263;49.418;11.064;2024-01-11T04:47:13;-8.90;99.90
14359;DHT22;7263;49.418;11.064;2024-01-11T04:49:39;-8.90;99.90
14359;DHT22;7263;49.418;11.064;2024-01-11T04:52:09;-8.80;99.90
14359;DHT22;7263;49.418;11.064;2024-01-11T04:54:38;-8.70;99.90
14359;DHT22;7263;49.418;11.064;2024-01-11T04:57:08;-8.70;99.90
14359;DHT22;7263;49.418;11.064;2024-01-11T04:59:34;-8.70;99.90
14359;DHT22;7263;49.418;11.064;2024-01-11T05:02:01;-8.70;99.90
14359;DHT22;7263;49.418;11.064;2024-01-11T05:04:29;-8.70;99.90
14359;DHT22;7263;49.418;11.064;2024-01-11T05:06:56;-8.70;99.90
14359;DHT22;7263;49.418;11.064;2024-01-11T05:09:23;-8.70;99.90
14359;DHT22;7263;49.418;11.064;2024-01-11T05:11:50;-8.70;99.90
14359;DHT22;7263;49.418;11.064;2024-01-11T05:14:16;-8.70;99.90
14359;DHT22;7263;49.418;11.064;2024-01-11T05:16:45;-8.80;99.90
14359;DHT22;7263;49.418;11.064;2024-01-11T05:19:12;-8.80;99.90
14359;DHT22;7263;49.418;11.064;2024-01-11T05:21:40;-8.90;99.90
14359;DHT22;7263;49.418;11.064;2024-01-11T05:24:10;-8.90;99.90
14359;DHT22;7263;49.418;11.064;2024-01-11T05:26:42;-9.00;99.90
14359;DHT22;7263;49.418;11.064;2024-01-11T05:29:12;-9.00;99.90
14359;DHT22;7263;49.418;11.064;2024-01-11T05:31:42;-9.00;99.90
14359;DHT22;7263;49.418;11.064;2024-01-11T05:34:12;-9.10;99.90
14359;DHT22;7263;49.418;11.064;2024-01-11T05:36:48;-9.10;99.90
14359;DHT22;7263;49.418;11.064;2024-01-11T05:39:15;-9.10;99.90
14359;DHT22;7263;49.418;11.064;2024-01-11T05:42:03;-9.20;99.90
14359;DHT22;7263;49.418;11.064;2024-01-11T05:44:33;-9.20;99.90
14359;DHT22;7263;49.418;11.064;2024-01-11T05:47:00;-9.30;99.90
14359;DHT22;7263;49.418;11.064;2024-01-11T05:49:29;-9.30;99.90
14359;DHT22;7263;49.418;11.064;2024-01-11T05:52:01;-9.30;99.90
14359;DHT22;7263;49.418;11.064;2024-01-11T05:54:28;-9.30;99.90
14359;DHT22;7263;49.418;11.064;2024-01-11T05:56:55;-9.40;99.90
14359;DHT22;7263;49.418;11.064;2024-01-11T05:59:23;-9.40;99.90
14359;DHT22;7263;49.418;11.064;2024-01-11T06:01:50;-9.40;99.90
14359;DHT22;7263;49.418;11.064;2024-01-11T06:04:19;-9.40;99.90
14359;DHT22;7263;49.418;11.064;2024-01-11T06:06:49;-9.50;99.90
14359;DHT22;7263;49.418;11.064;2024-01-11T06:09:23;-9.50;99.90
14359;DHT22;7263;49.418;11.064;2024-01-11T06:12:24;-9.50;99.90
14359;DHT22;7263;49.418;11.064;2024-01-11T06:15:02;-9.50;99.90
14359;DHT22;7263;49.418;11.064;2024-01-11T06:17:31;-9.50;99.90
14359;DHT22;7263;49.418;11.064;2024-01-11T06:19:57;-9.50;99.90
14359;DHT22;7263;49.418;11.064;2024-01-11T06:22:36;-9.50;99.90
14359;DHT22;7263;49.418;11.064;2024-01-11T06:25:11;-9.50;99.90
14359;DHT22;7263;49.418;11.064;2024-01-11T06:27:48;-9.50;99.90
14359;DHT22;7263;49.418;11.064;2024-01-11T06:30:18;-9.50;99.90
14359;DHT22;7263;49.418;11.064;2024-01-11T06:32:48;-9.40;99.90
14359;DHT22;7263;49.418;11.064;2024-01-11T06:35:22;-9.50;99.90
14359;DHT22;7263;49.418;11.064;2024-01-11T06:37:51;-9.50;99.90
14359;DHT22;7263;49.418;11.064;2024-01-11T06:40:19;-9.50;99.90
14359;DHT22;7263;49.418;11.064;2024-01-11T06:42:56;-9.40;99.90
14359;DHT22;7263;49.418;11.064;2024-01-11T06:45:23;-9.40;99.90
14359;DHT22;7263;49.418;11.064;2024-01-11T06:47:50;-9.40;99.90
14359;DHT22;7263;49.418;11.064;2024-01-11T06:50:16;-9.40;99.90
14359;DHT22;7263;49.418;11.064;2024-01-11T06:52:44;-9.40;99.90
14359;DHT22;7263;49.418;11.064;2024-01-11T06:55:11;-9.40;99.90
14359;DHT22;7263;49.418;11.064;2024-01-11T06:57:39;-9.40;99.90
14359;DHT22;7263;49.418;11.064;2024-01-11T07:00:16;-9.50;99.90
14359;DHT22;7263;49.418;11.064;2024-01-11T07:02:47;-9.50;99.90
14359;DHT22;7263;49.418;11.064;2024-01-11T07:05:14;-9.50;99.90
14359;DHT22;7263;49.418;11.064;2024-01-11T07:07:44;-9.50;99.90
14359;DHT22;7263;49.418;11.064;2024-01-11T07:10:10;-9.50;99.90
14359;DHT22;7263;49.418;11.064;2024-01-11T07:12:42;-9.50;99.90
14359;DHT22;7263;49.418;11.064;2024-01-11T07:15:11;-9.50;99.90
14359;DHT22;7263;49.418;11.064;2024-01-11T07:17:40;-9.40;99.90
14359;DHT22;7263;49.418;11.064;2024-01-11T07:20:08;-9.40;99.90
14359;DHT22;7263;49.418;11.064;2024-01-11T07:22:47;-9.30;99.90
14359;DHT22;7263;49.418;11.064;2024-01-11T07:25:17;-9.30;99.90
14359;DHT22;7263;49.418;11.064;2024-01-11T07:27:45;-9.20;99.90
14359;DHT22;7263;49.418;11.064;2024-01-11T07:30:23;-9.20;99.90
14359;DHT22;7263;49.418;11.064;2024-01-11T07:32:49;-9.20;99.90
14359;DHT22;7263;49.418;11.064;2024-01-11T07:35:17;-9.20;99.90
14359;DHT22;7263;49.418;11.064;2024-01-11T07:37:43;-9.10;99.90
14359;DHT22;7263;49.418;11.064;2024-01-11T07:40:13;-9.00;99.90
14359;DHT22;7263;49.418;11.064;2024-01-11T07:42:49;-8.80;99.90
14359;DHT22;7263;49.418;11.064;2024-01-11T07:45:16;-8.70;99.90
14359;DHT22;7263;49.418;11.064;2024-01-11T07:47:48;-8.40;99.90
14359;DHT22;7263;49.418;11.064;2024-01-11T07:50:15;-8.10;99.90
14359;DHT22;7263;49.418;11.064;2024-01-11T07:52:46;-7.80;99.90
14359;DHT22;7263;49.418;11.064;2024-01-11T07:55:13;-7.50;99.90
14359;DHT22;7263;49.418;11.064;2024-01-11T07:57:40;-7.20;99.90
14359;DHT22;7263;49.418;11.064;2024-01-11T08:00:19;-6.90;99.90
14359;DHT22;7263;49.418;11.064;2024-01-11T08:02:52;-6.60;99.90
14359;DHT22;7263;49.418;11.064;2024-01-11T08:05:19;-6.20;99.90
14359;DHT22;7263;49.418;11.064;2024-01-11T08:07:51;-5.80;99.90
14359;DHT22;7263;49.418;11.064;2024-01-11T08:10:21;-5.40;99.90
14359;DHT22;7263;49.418;11.064;2024-01-11T08:12:51;-5.10;99.90
14359;DHT22;7263;49.418;11.064;2024-01-11T08:36:22;-1.60;99.90
14359;DHT22;7263;49.418;11.064;2024-01-11T08:38:48;-1.20;99.90
14359;DHT22;7263;49.418;11.064;2024-01-11T08:41:15;-0.90;99.90
14359;DHT22;7263;49.418;11.064;2024-01-11T08:43:42;-0.70;99.90
14359;DHT22;7263;49.418;11.064;2024-01-11T08:46:12;-0.50;99.90
14359;DHT22;7263;49.418;11.064;2024-01-11T08:48:49;-0.30;99.90
14359;DHT22;7263;49.418;11.064;2024-01-11T08:51:18;0.00;99.90
14359;DHT22;7263;49.418;11.064;2024-01-11T08:53:52;0.40;99.90
14359;DHT22;7263;49.418;11.064;2024-01-11T08:56:19;0.60;99.90
14359;DHT22;7263;49.418;11.064;2024-01-11T08:58:48;0.90;99.90
14359;DHT22;7263;49.418;11.064;2024-01-11T09:01:15;1.10;99.90
14359;DHT22;7263;49.418;11.064;2024-01-11T09:03:45;1.40;99.90
14359;DHT22;7263;49.418;11.064;2024-01-11T09:06:13;1.20;99.90
14359;DHT22;7263;49.418;11.064;2024-01-11T09:08:40;0.70;99.90
14359;DHT22;7263;49.418;11.064;2024-01-11T09:11:09;0.60;99.90
14359;DHT22;7263;49.418;11.064;2024-01-11T09:13:38;0.70;99.90
14359;DHT22;7263;49.418;11.064;2024-01-11T09:16:05;0.50;99.90
14359;DHT22;7263;49.418;11.064;2024-01-11T09:18:35;0.10;99.90
14359;DHT22;7263;49.418;11.064;2024-01-11T09:21:01;0.20;99.90
14359;DHT22;7263;49.418;11.064;2024-01-11T09:23:31;0.70;99.90
14359;DHT22;7263;49.418;11.064;2024-01-11T09:25:59;1.20;99.90
14359;DHT22;7263;49.418;11.064;2024-01-11T09:28:34;1.70;99.90
14359;DHT22;7263;49.418;11.064;2024-01-11T09:31:14;2.00;99.90
14359;DHT22;7263;49.418;11.064;2024-01-11T09:33:55;2.20;99.90
14359;DHT22;7263;49.418;11.064;2024-01-11T09:36:24;2.40;99.90
14359;DHT22;7263;49.418;11.064;2024-01-11T09:38:51;2.60;99.90
14359;DHT22;7263;49.418;11.064;2024-01-11T09:41:19;2.90;99.90
14359;DHT22;7263;49.418;11.064;2024-01-11T09:43:50;2.90;99.90
14359;DHT22;7263;49.418;11.064;2024-01-11T09:46:28;3.10;99.90
14359;DHT22;7263;49.418;11.064;2024-01-11T09:48:57;3.10;99.90
14359;DHT22;7263;49.418;11.064;2024-01-11T09:51:25;3.20;99.90
14359;DHT22;7263;49.418;11.064;2024-01-11T09:53:55;3.30;99.90
14359;DHT22;7263;49.418;11.064;2024-01-11T09:56:25;3.40;99.90
14359;DHT22;7263;49.418;11.064;2024-01-11T09:58:59;3.70;99.90
14359;DHT22;7263;49.418;11.064;2024-01-11T10:01:35;4.00;99.90
14359;DHT22;7263;49.418;11.064;2024-01-11T10:04:03;4.10;99.90
14359;DHT22;7263;49.418;11.064;2024-01-11T10:06:32;4.30;99.90
14359;DHT22;7263;49.418;11.064;2024-01-11T10:09:03;4.40;99.90
14359;DHT22;7263;49.418;11.064;2024-01-11T10:11:30;4.60;99.90
14359;DHT22;7263;49.418;11.064;2024-01-11T10:14:07;4.60;99.90
14359;DHT22;7263;49.418;11.064;2024-01-11T10:16:34;4.80;99.90
14359;DHT22;7263;49.418;11.064;2024-01-11T10:19:06;4.70;99.90
14359;DHT22;7263;49.418;11.064;2024-01-11T10:21:37;4.50;99.90
14359;DHT22;7263;49.418;11.064;2024-01-11T10:24:05;4.10;99.90
14359;DHT22;7263;49.418;11.064;2024-01-11T10:26:38;4.10;99.90
14359;DHT22;7263;49.418;11.064;2024-01-11T10:29:11;4.10;99.90
14359;DHT22;7263;49.418;11.064;2024-01-11T10:31:40;4.30;99.90
14359;DHT22;7263;49.418;11.064;2024-01-11T10:34:22;4.50;99.90
14359;DHT22;7263;49.418;11.064;2024-01-11T10:36:52;3.90;99.90
14359;DHT22;7263;49.418;11.064;2024-01-11T10:39:24;3.50;99.90
14359;DHT22;7263;49.418;11.064;2024-01-11T10:41:54;3.50;99.90
14359;DHT22;7263;49.418;11.064;2024-01-11T10:44:34;3.20;99.90
14359;DHT22;7263;49.418;11.064;2024-01-11T10:47:07;3.20;99.90
14359;DHT22;7263;49.418;11.064;2024-01-11T10:49:39;2.80;99.90
14359;DHT22;7263;49.418;11.064;2024-01-11T10:52:07;2.80;99.90
14359;DHT22;7263;49.418;11.064;2024-01-11T10:54:38;3.30;99.90
14359;DHT22;7263;49.418;11.064;2024-01-11T10:57:15;3.60;99.90
14359;DHT22;7263;49.418;11.064;2024-01-11T10:59:54;3.80;99.90
14359;DHT22;7263;49.418;11.064;2024-01-11T11:02:24;4.20;99.90
14359;DHT22;7263;49.418;11.064;2024-01-11T11:04:51;4.50;99.90
14359;DHT22;7263;49.418;11.064;2024-01-11T11:07:20;4.60;99.90
14359;DHT22;7263;49.418;11.064;2024-01-11T11:09:51;4.60;99.90
14359;DHT22;7263;49.418;11.064;2024-01-11T11:12:28;4.70;99.90
14359;DHT22;7263;49.418;11.064;2024-01-11T11:14:58;4.70;99.90
14359;DHT22;7263;49.418;11.064;2024-01-11T11:17:29;4.60;99.90
14359;DHT22;7263;49.418;11.064;2024-01-11T11:20:05;4.90;99.90
14359;DHT22;7263;49.418;11.064;2024-01-11T11:22:37;5.20;99.90
14359;DHT22;7263;49.418;11.064;2024-01-11T11:25:23;5.00;99.90
14359;DHT22;7263;49.418;11.064;2024-01-11T11:27:57;4.80;99.90
14359;DHT22;7263;49.418;11.064;2024-01-11T11:30:33;4.50;99.90
14359;DHT22;7263;49.418;11.064;2024-01-11T11:33:17;4.60;99.90
14359;DHT22;7263;49.418;11.064;2024-01-11T11:35:53;4.50;99.90
14359;DHT22;7263;49.418;11.064;2024-01-11T11:38:21;4.40;99.90
14359;DHT22;7263;49.418;11.064;2024-01-11T11:40:51;4.10;99.90
14359;DHT22;7263;49.418;11.064;2024-01-11T11:43:21;4.10;99.90
14359;DHT22;7263;49.418;11.064;2024-01-11T11:45:50;4.30;99.90
14359;DHT22;7263;49.418;11.064;2024-01-11T11:48:52;4.40;99.90
14359;DHT22;7263;49.418;11.064;2024-01-11T11:51:20;4.50;99.90
14359;DHT22;7263;49.418;11.064;2024-01-11T11:53:51;3.80;99.90
14359;DHT22;7263;49.418;11.064;2024-01-11T11:56:22;3.40;99.90
14359;DHT22;7263;49.418;11.064;2024-01-11T11:59:07;3.30;99.90
14359;DHT22;7263;49.418;11.064;2024-01-11T12:01:46;2.80;99.90
14359;DHT22;7263;49.418;11.064;2024-01-11T12:04:18;2.50;99.90
14359;DHT22;7263;49.418;11.064;2024-01-11T12:06:50;2.50;99.90
14359;DHT22;7263;49.418;11.064;2024-01-11T12:09:18;2.50;99.90
14359;DHT22;7263;49.418;11.064;2024-01-11T12:11:58;2.30;99.90
14359;DHT22;7263;49.418;11.064;2024-01-11T12:14:28;2.50;99.90
14359;DHT22;7263;49.418;11.064;2024-01-11T12:16:59;2.80;99.90
14359;DHT22;7263;49.418;11.064;2024-01-11T12:19:33;2.70;99.90
14359;DHT22;7263;49.418;11.064;2024-01-11T12:22:05;2.50;99.90
14359;DHT22;7263;49.418;11.064;2024-01-11T12:24:38;2.20;99.90
14359;DHT22;7263;49.418;11.064;2024-01-11T12:27:05;1.80;99.90
14359;DHT22;7263;49.418;11.064;2024-01-11T12:29:35;1.70;99.90
14359;DHT22;7263;49.418;11.064;2024-01-11T12:32:08;1.70;99.90
14359;DHT22;7263;49.418;11.064;2024-01-11T12:34:42;1.60;99.90
14359;DHT22;7263;49.418;11.064;2024-01-11T12:37:09;1.60;99.90
14359;DHT22;7263;49.418;11.064;2024-01-11T12:39:37;1.50;99.90
14359;DHT22;7263;49.418;11.064;2024-01-11T12:42:05;1.50;99.90
14359;DHT22;7263;49.418;11.064;2024-01-11T12:44:40;1.40;99.90
14359;DHT22;7263;49.418;11.064;2024-01-11T12:47:17;1.10;99.90
14359;DHT22;7263;49.418;11.064;2024-01-11T12:49:44;0.80;99.90
14359;DHT22;7263;49.418;11.064;2024-01-11T12:52:21;0.60;99.90
14359;DHT22;7263;49.418;11.064;2024-01-11T12:54:52;0.40;99.90
14359;DHT22;7263;49.418;11.064;2024-01-11T12:57:21;0.20;99.90
14359;DHT22;7263;49.418;11.064;2024-01-11T12:59:51;0.10;99.90
14359;DHT22;7263;49.418;11.064;2024-01-11T13:02:19;0.00;99.90
14359;DHT22;7263;49.418;11.064;2024-01-11T13:04:57;-0.10;99.90
14359;DHT22;7263;49.418;11.064;2024-01-11T13:07:31;-0.10;99.90
14359;DHT22;7263;49.418;11.064;2024-01-11T13:10:02;-0.20;99.90
14359;DHT22;7263;49.418;11.064;2024-01-11T13:12:29;-0.20;99.90
14359;DHT22;7263;49.418;11.064;2024-01-11T13:14:59;-0.20;99.90
14359;DHT22;7263;49.418;11.064;2024-01-11T13:17:27;-0.20;99.90
14359;DHT22;7263;49.418;11.064;2024-01-11T13:19:56;-0.20;99.90
14359;DHT22;7263;49.418;11.064;2024-01-11T13:22:24;-0.20;99.90
14359;DHT22;7263;49.418;11.064;2024-01-11T13:24:52;-0.20;99.90
14359;DHT22;7263;49.418;11.064;2024-01-11T13:27:30;-0.30;99.90
14359;DHT22;7263;49.418;11.064;2024-01-11T13:29:57;-0.30;99.90
14359;DHT22;7263;49.418;11.064;2024-01-11T13:32:24;-0.30;99.90
14359;DHT22;7263;49.418;11.064;2024-01-11T13:34:58;-0.30;99.90
14359;DHT22;7263;49.418;11.064;2024-01-11T13:37:25;-0.30;99.90
14359;DHT22;7263;49.418;11.064;2024-01-11T13:39:51;-0.40;99.90
14359;DHT22;7263;49.418;11.064;2024-01-11T13:42:18;-0.40;99.90
14359;DHT22;7263;49.418;11.064;2024-01-11T13:44:48;-0.40;99.90
14359;DHT22;7263;49.418;11.064;2024-01-11T13:47:14;-0.30;99.90
14359;DHT22;7263;49.418;11.064;2024-01-11T13:49:48;-0.30;99.90
14359;DHT22;7263;49.418;11.064;2024-01-11T13:52:22;-0.40;99.90
14359;DHT22;7263;49.418;11.064;2024-01-11T13:54:51;-0.40;99.90
14359;DHT22;7263;49.418;11.064;2024-01-11T13:57:17;-0.30;99.90
14359;DHT22;7263;49.418;11.064;2024-01-11T13:59:53;-0.40;99.90
14359;DHT22;7263;49.418;11.064;2024-01-11T14:02:20;-0.40;99.90
14359;DHT22;7263;49.418;11.064;2024-01-11T14:04:49;-0.40;99.90
14359;DHT22;7263;49.418;11.064;2024-01-11T14:07:16;-0.40;99.90
14359;DHT22;7263;49.418;11.064;2024-01-11T14:09:44;-0.40;99.90
14359;DHT22;7263;49.418;11.064;2024-01-11T14:12:11;-0.40;99.90
14359;DHT22;7263;49.418;11.064;2024-01-11T14:14:40;-0.50;99.90
14359;DHT22;7263;49.418;11.064;2024-01-11T14:17:08;-0.50;99.90
14359;DHT22;7263;49.418;11.064;2024-01-11T14:19:48;-0.50;99.90
14359;DHT22;7263;49.418;11.064;2024-01-11T14:22:14;-0.50;99.90
14359;DHT22;7263;49.418;11.064;2024-01-11T14:24:41;-0.50;99.90
14359;DHT22;7263;49.418;11.064;2024-01-11T14:27:12;-0.50;99.90
14359;DHT22;7263;49.418;11.064;2024-01-11T14:29:42;-0.40;99.90
14359;DHT22;7263;49.418;11.064;2024-01-11T14:32:09;-0.40;99.90
14359;DHT22;7263;49.418;11.064;2024-01-11T14:34:36;-0.40;99.90
14359;DHT22;7263;49.418;11.064;2024-01-11T14:37:04;-0.40;99.90
14359;DHT22;7263;49.418;11.064;2024-01-11T14:39:34;-0.30;99.90
14359;DHT22;7263;49.418;11.064;2024-01-11T14:42:01;-0.30;99.90
14359;DHT22;7263;49.418;11.064;2024-01-11T14:44:34;-0.30;99.90
14359;DHT22;7263;49.418;11.064;2024-01-11T14:47:03;-0.20;99.90
14359;DHT22;7263;49.418;11.064;2024-01-11T14:49:32;-0.20;99.90
14359;DHT22;7263;49.418;11.064;2024-01-11T14:51:59;-0.20;99.90
14359;DHT22;7263;49.418;11.064;2024-01-11T14:54:29;-0.20;99.90
14359;DHT22;7263;49.418;11.064;2024-01-11T14:56:56;-0.30;99.90
14359;DHT22;7263;49.418;11.064;2024-01-11T14:59:23;-0.30;99.90
14359;DHT22;7263;49.418;11.064;2024-01-11T15:01:54;-0.30;99.90
14359;DHT22;7263;49.418;11.064;2024-01-11T15:04:24;-0.30;99.90
14359;DHT22;7263;49.418;11.064;2024-01-11T15:06:50;-0.30;99.90
14359;DHT22;7263;49.418;11.064;2024-01-11T15:09:17;-0.40;99.90
14359;DHT22;7263;49.418;11.064;2024-01-11T15:11:44;-0.40;99.90
14359;DHT22;7263;49.418;11.064;2024-01-11T15:14:13;-0.40;99.90
14359;DHT22;7263;49.418;11.064;2024-01-11T15:16:40;-0.50;99.90
14359;DHT22;7263;49.418;11.064;2024-01-11T15:19:17;-0.50;99.90
14359;DHT22;7263;49.418;11.064;2024-01-11T15:21:46;-0.50;99.90
14359;DHT22;7263;49.418;11.064;2024-01-11T15:24:13;-0.60;99.90
14359;DHT22;7263;49.418;11.064;2024-01-11T15:26:40;-0.60;99.90
14359;DHT22;7263;49.418;11.064;2024-01-11T15:29:10;-0.70;99.90
14359;DHT22;7263;49.418;11.064;2024-01-11T15:31:44;-0.80;99.90
14359;DHT22;7263;49.418;11.064;2024-01-11T15:34:18;-0.90;99.90
14359;DHT22;7263;49.418;11.064;2024-01-11T15:36:51;-0.90;99.90
14359;DHT22;7263;49.418;11.064;2024-01-11T15:39:23;-0.90;99.90
14359;DHT22;7263;49.418;11.064;2024-01-11T15:41:51;-1.00;99.90
14359;DHT22;7263;49.418;11.064;2024-01-11T15:44:20;-1.00;99.90
14359;DHT22;7263;49.418;11.064;2024-01-11T15:46:53;-1.10;99.90
14359;DHT22;7263;49.418;11.064;2024-01-11T15:49:24;-1.10;99.90
14359;DHT22;7263;49.418;11.064;2024-01-11T15:51:51;-1.20;99.90
14359;DHT22;7263;49.418;11.064;2024-01-11T15:54:18;-1.30;99.90
14359;DHT22;7263;49.418;11.064;2024-01-11T15:56:45;-1.30;99.90
14359;DHT22;7263;49.418;11.064;2024-01-11T15:59:14;-1.40;99.90
14359;DHT22;7263;49.418;11.064;2024-01-11T16:01:43;-1.40;99.90
14359;DHT22;7263;49.418;11.064;2024-01-11T16:04:10;-1.50;99.90
14359;DHT22;7263;49.418;11.064;2024-01-11T16:06:38;-1.50;99.90
14359;DHT22;7263;49.418;11.064;2024-01-11T16:09:07;-1.60;99.90
14359;DHT22;7263;49.418;11.064;2024-01-11T16:11:39;-1.60;99.90
14359;DHT22;7263;49.418;11.064;2024-01-11T16:14:15;-1.60;99.90
14359;DHT22;7263;49.418;11.064;2024-01-11T16:16:42;-1.70;99.90